Terminal Aerodrome Forecast
Issued by NWS

Home | Current Version | Previous Version | Graphics & Text | Print | Product List | Glossary On
Versions: 1 2 3 4 5 6 7 8 9 10 11 12 13 14 15 16
168
FTUS43 KGRB 252331
TAFCWA
TAF
KCWA 252331Z 2600/2624 31010G14KT P6SM VCSH SCT020 BKN045
      TEMPO 2600/2603 BKN020
     FM260300 30006KT P6SM SCT040 BKN080
     FM260500 30006KT P6SM FEW040 SCT080
     FM261100 30008KT P6SM SCT030 BKN050
     FM261400 32011G19KT P6SM VCSH SCT025 BKN035
     FM262100 32009KT P6SM SCT030 BKN050=

USA.gov is the U.S. government's official web portal to all federal, state and local government web resources and services.